createdAt,value
2023-04-04T00:00:38.983Z,59.00
2023-04-04T00:03:07.251Z,59.00
2023-04-04T00:05:35.467Z,59.10
2023-04-04T00:08:03.542Z,59.10
2023-04-04T00:10:32.639Z,59.10
2023-04-04T00:13:00.432Z,59.10
2023-04-04T00:15:28.238Z,59.10
2023-04-04T00:17:57.096Z,59.70
2023-04-04T00:20:24.910Z,59.10
2023-04-04T00:22:52.679Z,59.10
2023-04-04T00:25:20.557Z,59.10
2023-04-04T00:27:50.201Z,59.20
2023-04-04T00:30:17.896Z,59.20
2023-04-04T00:32:45.951Z,59.20
2023-04-04T00:35:13.980Z,59.20
2023-04-04T00:37:42.653Z,59.20
2023-04-04T00:40:10.755Z,59.20
2023-04-04T00:42:38.580Z,59.30
2023-04-04T00:45:09.155Z,59.30
2023-04-04T00:47:38.702Z,59.30
2023-04-04T00:50:08.197Z,59.30
2023-04-04T00:52:35.969Z,59.30
2023-04-04T00:55:04.819Z,59.30
2023-04-04T00:57:34.079Z,59.40
2023-04-04T01:00:05.116Z,59.40
2023-04-04T01:02:34.263Z,59.40
2023-04-04T01:05:03.401Z,59.40
2023-04-04T01:07:32.360Z,59.50
2023-04-04T01:10:00.478Z,59.40
2023-04-04T01:12:28.553Z,59.50
2023-04-04T01:14:56.397Z,59.50
2023-04-04T01:17:25.051Z,59.50
2023-04-04T01:20:03.669Z,59.50
2023-04-04T01:22:39.758Z,59.50
2023-04-04T01:25:09.621Z,59.50
2023-04-04T01:27:41.552Z,59.60
2023-04-04T01:30:16.329Z,59.50
2023-04-04T01:32:49.291Z,59.60
2023-04-04T01:35:32.035Z,59.60
2023-04-04T01:38:09.198Z,59.60
2023-04-04T01:40:39.177Z,59.60
2023-04-04T01:43:10.000Z,59.60
2023-04-04T01:45:40.414Z,59.70
2023-04-04T01:48:11.201Z,59.70
2023-04-04T01:50:40.283Z,59.70
2023-04-04T01:53:09.050Z,59.70
2023-04-04T01:55:37.268Z,59.70
2023-04-04T01:58:04.972Z,59.70
2023-04-04T02:00:34.111Z,59.70
2023-04-04T02:03:02.485Z,59.70
2023-04-04T02:05:30.378Z,59.70
2023-04-04T02:07:58.106Z,59.80
2023-04-04T02:10:34.277Z,59.80
2023-04-04T02:13:01.990Z,59.80
2023-04-04T02:15:29.680Z,59.80
2023-04-04T02:18:01.335Z,59.80
2023-04-04T02:20:29.720Z,59.80
2023-04-04T02:22:57.824Z,59.80
2023-04-04T02:25:26.704Z,59.90
2023-04-04T02:27:54.455Z,59.90
2023-04-04T02:30:22.544Z,59.90
2023-04-04T02:32:51.701Z,59.90
2023-04-04T02:35:22.482Z,59.90
2023-04-04T02:37:51.299Z,59.90
2023-04-04T02:40:29.510Z,59.90
2023-04-04T02:42:57.215Z,59.90
2023-04-04T02:45:25.425Z,59.90
2023-04-04T02:48:03.715Z,59.90
2023-04-04T02:50:41.187Z,60.00
2023-04-04T02:53:11.766Z,60.00
2023-04-04T02:55:39.547Z,60.00
2023-04-04T02:58:07.680Z,60.00
2023-04-04T03:00:35.396Z,60.00
2023-04-04T03:03:03.845Z,60.00
2023-04-04T03:05:35.005Z,60.00
2023-04-04T03:08:04.893Z,60.00
2023-04-04T03:10:32.700Z,60.00
2023-04-04T03:13:00.495Z,60.00
2023-04-04T03:15:30.462Z,60.00
2023-04-04T03:18:00.044Z,60.00
2023-04-04T03:20:29.899Z,60.10
2023-04-04T03:22:58.449Z,60.00
2023-04-04T03:25:27.535Z,60.10
2023-04-04T03:27:55.872Z,60.10
2023-04-04T03:30:27.951Z,60.10
2023-04-04T03:32:56.604Z,60.10
2023-04-04T03:35:24.400Z,60.10
2023-04-04T03:37:52.545Z,60.10
2023-04-04T03:40:20.263Z,60.20
2023-04-04T03:42:49.295Z,60.20
2023-04-04T03:45:20.463Z,60.20
2023-04-04T03:47:48.248Z,60.10
2023-04-04T03:50:16.651Z,60.10
2023-04-04T03:52:50.659Z,60.10
2023-04-04T03:55:19.987Z,60.10
2023-04-04T03:57:49.107Z,60.20
2023-04-04T04:00:18.022Z,60.20
2023-04-04T04:02:46.309Z,60.20
2023-04-04T04:05:14.317Z,60.20
2023-04-04T04:07:44.348Z,60.20
2023-04-04T04:10:13.957Z,60.30
2023-04-04T04:12:41.821Z,60.30
2023-04-04T04:15:11.983Z,60.30
2023-04-04T04:17:42.045Z,60.30
2023-04-04T04:20:12.261Z,60.20
2023-04-04T04:22:47.070Z,60.20
2023-04-04T04:25:15.068Z,60.20
2023-04-04T04:27:45.952Z,60.20
2023-04-04T04:30:16.660Z,60.20
2023-04-04T04:32:46.475Z,60.20
2023-04-04T04:35:15.565Z,60.20
2023-04-04T04:37:44.588Z,60.10
2023-04-04T04:40:14.102Z,60.10
2023-04-04T04:42:51.941Z,60.10
2023-04-04T04:45:24.643Z,60.10
2023-04-04T04:48:04.138Z,60.00
2023-04-04T04:50:33.374Z,60.00
2023-04-04T04:53:01.311Z,60.10
2023-04-04T04:55:29.043Z,60.00
2023-04-04T04:58:07.561Z,60.50
2023-04-04T05:00:37.747Z,61.80
2023-04-04T05:03:08.272Z,61.00
2023-04-04T05:05:40.754Z,60.90
2023-04-04T05:08:12.610Z,60.80
2023-04-04T05:10:50.955Z,60.70
2023-04-04T05:13:20.343Z,60.50
2023-04-04T05:15:50.397Z,60.30
2023-04-04T05:18:19.292Z,60.10
2023-04-04T05:20:52.794Z,60.00
2023-04-04T05:23:20.720Z,59.80
2023-04-04T05:25:50.590Z,59.80
2023-04-04T05:28:19.282Z,59.70
2023-04-04T05:30:47.569Z,59.70
2023-04-04T05:33:21.005Z,59.70
2023-04-04T05:36:00.686Z,59.70
2023-04-04T05:38:30.973Z,59.70
2023-04-04T05:40:58.678Z,60.40
2023-04-04T05:43:27.246Z,59.70
2023-04-04T05:46:12.072Z,59.60
2023-04-04T05:48:46.942Z,59.50
2023-04-04T05:51:15.525Z,59.60
2023-04-04T05:54:07.312Z,59.50
2023-04-04T05:56:35.883Z,59.40
2023-04-04T05:59:06.531Z,59.50
2023-04-04T06:01:42.271Z,59.40
2023-04-04T06:04:15.516Z,59.40
2023-04-04T06:06:44.357Z,59.40
2023-04-04T06:09:12.106Z,59.40
2023-04-04T06:11:39.977Z,60.00
2023-04-04T06:14:10.896Z,59.40
2023-04-04T06:16:40.417Z,59.30
2023-04-04T06:19:08.144Z,59.30
2023-04-04T06:21:37.419Z,59.30
2023-04-04T06:24:05.844Z,59.30
2023-04-04T06:26:33.611Z,59.30
2023-04-04T06:29:03.671Z,59.40
2023-04-04T06:31:34.604Z,59.30
2023-04-04T06:34:10.461Z,59.30
2023-04-04T06:36:52.644Z,59.30
2023-04-04T06:39:21.361Z,59.40
2023-04-04T06:41:50.848Z,59.30
2023-04-04T06:44:24.663Z,59.30
2023-04-04T06:46:52.568Z,59.20
2023-04-04T06:49:20.310Z,59.20
2023-04-04T06:51:50.538Z,59.20
2023-04-04T06:54:19.665Z,59.20
2023-04-04T06:56:47.418Z,59.10
2023-04-04T06:59:15.795Z,59.10
2023-04-04T07:01:43.552Z,59.10
2023-04-04T07:04:11.430Z,59.10
2023-04-04T07:06:39.123Z,59.20
2023-04-04T07:09:12.871Z,59.30
2023-04-04T07:11:47.720Z,59.30
2023-04-04T07:14:15.918Z,59.30
2023-04-04T07:16:43.650Z,59.30
2023-04-04T07:19:11.447Z,59.30
2023-04-04T07:21:40.004Z,59.30
2023-04-04T07:24:07.951Z,59.30
2023-04-04T07:26:35.658Z,59.30
2023-04-04T07:29:04.783Z,59.30
2023-04-04T07:31:32.924Z,59.30
2023-04-04T07:34:01.339Z,59.20
2023-04-04T07:36:29.100Z,59.30
2023-04-04T07:38:56.996Z,59.30
2023-04-04T07:41:25.528Z,59.30
2023-04-04T07:43:53.301Z,59.30
2023-04-04T07:46:22.420Z,59.30
2023-04-04T07:48:50.457Z,59.30
2023-04-04T07:51:18.881Z,59.30
2023-04-04T07:53:46.643Z,59.30
2023-04-04T07:56:14.336Z,59.20
2023-04-04T07:58:42.061Z,59.20
2023-04-04T08:01:09.833Z,59.30
2023-04-04T08:03:38.979Z,59.30
2023-04-04T08:06:07.140Z,59.20
2023-04-04T08:08:34.858Z,59.20
2023-04-04T08:11:02.557Z,59.30
2023-04-04T08:13:30.476Z,59.40
2023-04-04T08:15:58.395Z,59.50
2023-04-04T08:18:27.034Z,59.50
2023-04-04T08:20:56.070Z,59.60
2023-04-04T08:23:23.778Z,59.60
2023-04-04T08:25:51.539Z,59.70
2023-04-04T08:28:19.255Z,59.80
2023-04-04T08:30:47.118Z,59.90
2023-04-04T08:33:14.893Z,60.00
2023-04-04T08:35:42.693Z,60.20
2023-04-04T08:38:11.764Z,60.80
2023-04-04T08:40:39.873Z,60.40
2023-04-04T08:43:08.720Z,60.60
2023-04-04T08:45:37.955Z,60.90
2023-04-04T08:48:07.024Z,61.00
2023-04-04T08:50:37.946Z,61.20
2023-04-04T08:53:06.148Z,61.40
2023-04-04T08:55:35.217Z,61.60
2023-04-04T08:58:03.005Z,62.60
2023-04-04T09:00:30.859Z,61.80
2023-04-04T09:03:06.253Z,61.70
2023-04-04T09:05:34.718Z,61.70
2023-04-04T09:08:03.747Z,61.70
2023-04-04T09:10:31.835Z,61.80
2023-04-04T09:13:14.735Z,62.10
2023-04-04T09:15:48.045Z,62.10
2023-04-04T09:18:16.233Z,62.10
2023-04-04T09:20:45.413Z,62.00
2023-04-04T09:23:14.319Z,62.20
2023-04-04T09:26:02.593Z,62.20
2023-04-04T09:28:33.553Z,62.30
2023-04-04T09:31:02.832Z,62.30
2023-04-04T09:33:31.939Z,62.10
2023-04-04T09:36:02.718Z,61.90
2023-04-04T09:38:31.099Z,61.80
2023-04-04T09:40:59.183Z,61.70
2023-04-04T09:43:30.650Z,61.60
2023-04-04T09:46:01.971Z,61.60
2023-04-04T09:48:32.461Z,61.50
2023-04-04T09:51:00.281Z,61.50
2023-04-04T09:53:28.173Z,61.50
2023-04-04T09:55:57.175Z,61.30
2023-04-04T09:58:26.364Z,61.10
2023-04-04T10:00:56.438Z,60.80
2023-04-04T10:03:26.230Z,61.50
2023-04-04T10:05:59.832Z,60.50
2023-04-04T10:08:28.967Z,60.40
2023-04-04T10:11:09.852Z,60.40
2023-04-04T10:13:41.274Z,60.30
2023-04-04T10:16:10.465Z,60.10
2023-04-04T10:18:40.269Z,60.40
2023-04-04T10:23:42.889Z,60.10
2023-04-04T10:26:11.677Z,60.00
2023-04-04T10:28:39.618Z,60.00
2023-04-04T10:31:13.018Z,60.00
2023-04-04T10:33:48.932Z,60.00
2023-04-04T10:36:23.334Z,59.90
2023-04-04T10:38:59.687Z,59.90
2023-04-04T10:41:30.781Z,59.90
2023-04-04T10:44:04.063Z,59.90
2023-04-04T10:46:34.701Z,59.90
2023-04-04T10:49:04.682Z,59.90
2023-04-04T10:51:37.245Z,59.90
2023-04-04T10:54:13.453Z,59.90
2023-04-04T10:56:41.963Z,59.80
2023-04-04T10:59:14.588Z,59.60
2023-04-04T11:01:50.451Z,59.40
2023-04-04T11:04:21.807Z,59.30
2023-04-04T11:07:09.363Z,59.30
2023-04-04T11:09:53.616Z,59.20
2023-04-04T11:12:29.791Z,59.10
2023-04-04T11:14:59.655Z,59.30
2023-04-04T11:18:02.852Z,59.50
2023-04-04T11:20:39.626Z,59.60
2023-04-04T11:23:09.930Z,59.60
2023-04-04T11:25:39.736Z,59.60
2023-04-04T11:28:09.884Z,59.10
2023-04-04T11:30:48.234Z,58.70
2023-04-04T11:33:28.055Z,58.20
2023-04-04T11:36:07.791Z,57.70
2023-04-04T11:38:36.404Z,57.50
2023-04-04T11:41:04.254Z,57.40
2023-04-04T11:43:34.628Z,57.30
2023-04-04T11:46:08.740Z,57.30
2023-04-04T11:48:37.124Z,57.10
2023-04-04T11:51:08.042Z,56.80
2023-04-04T11:53:36.065Z,56.80
2023-04-04T11:56:04.003Z,55.90
2023-04-04T11:58:36.978Z,55.30
2023-04-04T12:01:05.268Z,55.50
2023-04-04T12:03:33.117Z,55.40
2023-04-04T12:06:02.971Z,55.30
2023-04-04T12:08:33.563Z,55.10
2023-04-04T12:11:06.438Z,54.90
2023-04-04T12:13:34.176Z,54.60
2023-04-04T12:16:01.902Z,54.40
2023-04-04T12:18:31.041Z,54.10
2023-04-04T12:20:58.773Z,53.70
2023-04-04T12:23:27.578Z,53.40
2023-04-04T12:25:58.481Z,52.90
2023-04-04T12:28:27.273Z,52.60
2023-04-04T12:30:56.503Z,52.40
2023-04-04T12:33:24.275Z,52.20
2023-04-04T12:35:53.120Z,52.00
2023-04-04T12:38:20.867Z,51.80
2023-04-04T12:40:48.548Z,51.80
2023-04-04T12:43:19.553Z,51.80
2023-04-04T12:45:47.640Z,51.80
2023-04-04T12:48:17.973Z,51.90
2023-04-04T12:50:53.144Z,52.00
2023-04-04T12:53:29.016Z,52.20
2023-04-04T12:56:01.236Z,52.30
2023-04-04T12:58:30.286Z,52.40
2023-04-04T13:01:01.824Z,52.50
2023-04-04T13:03:30.080Z,52.60
2023-04-04T13:05:59.446Z,52.70
2023-04-04T13:08:27.224Z,52.80
2023-04-04T13:11:00.565Z,52.90
2023-04-04T13:13:40.664Z,53.00
2023-04-04T13:16:09.603Z,53.10
2023-04-04T13:18:41.682Z,53.20
2023-04-04T13:21:10.525Z,53.30
2023-04-04T13:23:40.305Z,53.40
2023-04-04T13:26:09.558Z,54.10
2023-04-04T13:28:38.624Z,53.50
2023-04-04T13:31:08.223Z,53.60
2023-04-04T13:33:36.504Z,53.60
2023-04-04T13:36:04.647Z,53.70
2023-04-04T13:38:32.365Z,53.60
2023-04-04T13:41:00.511Z,53.50
2023-04-04T13:43:28.599Z,53.30
2023-04-04T13:45:57.642Z,53.10
2023-04-04T13:48:25.356Z,53.30
2023-04-04T13:50:55.045Z,53.20
2023-04-04T13:53:22.802Z,53.30
2023-04-04T13:56:16.336Z,53.30
2023-04-04T13:58:38.974Z,53.40
2023-04-04T14:01:08.807Z,53.50
2023-04-04T14:03:36.932Z,53.50
2023-04-04T14:06:10.456Z,53.70
2023-04-04T14:08:39.164Z,53.70
2023-04-04T14:11:06.864Z,53.80
2023-04-04T14:13:36.050Z,53.90
2023-04-04T14:16:04.143Z,54.10
2023-04-04T14:18:34.267Z,54.00
2023-04-04T14:21:02.120Z,54.10
2023-04-04T14:23:30.879Z,54.20
2023-04-04T14:25:58.696Z,54.20
2023-04-04T14:28:26.437Z,54.20
2023-04-04T14:30:54.140Z,54.40
2023-04-04T14:33:22.132Z,54.40
2023-04-04T14:35:51.599Z,54.40
2023-04-04T14:38:19.344Z,54.50
2023-04-04T14:40:47.686Z,55.20
2023-04-04T14:43:15.886Z,54.60
2023-04-04T14:45:43.601Z,54.70
2023-04-04T14:48:11.563Z,54.80
2023-04-04T14:50:40.206Z,54.90
2023-04-04T14:53:09.604Z,54.90
2023-04-04T14:55:37.460Z,55.00
2023-04-04T14:58:05.357Z,55.00
2023-04-04T15:00:33.827Z,55.10
2023-04-04T15:03:01.617Z,55.20
2023-04-04T15:05:29.707Z,55.30
2023-04-04T15:07:57.384Z,55.30
2023-04-04T15:10:26.437Z,55.40
2023-04-04T15:12:54.261Z,55.40
2023-04-04T15:15:23.657Z,55.40
2023-04-04T15:17:51.861Z,55.50
2023-04-04T15:20:19.617Z,55.50
2023-04-04T15:22:47.372Z,55.60
2023-04-04T15:25:15.110Z,55.60
2023-04-04T15:27:44.112Z,55.60
2023-04-04T15:30:13.468Z,55.70
2023-04-04T15:32:41.210Z,55.70
2023-04-04T15:35:17.262Z,55.70
2023-04-04T15:37:44.961Z,55.80
2023-04-04T15:40:13.286Z,55.80
2023-04-04T15:42:41.225Z,55.80
2023-04-04T15:45:11.904Z,55.80
2023-04-04T15:47:40.158Z,55.80
2023-04-04T15:50:09.193Z,55.80
2023-04-04T15:52:36.886Z,55.90
2023-04-04T15:55:04.883Z,55.90
2023-04-04T15:57:32.562Z,55.90
2023-04-04T16:00:00.233Z,55.90
2023-04-04T16:02:31.714Z,56.00
2023-04-04T16:04:59.467Z,56.00
2023-04-04T16:07:27.196Z,56.00
2023-04-04T16:09:55.182Z,56.10
2023-04-04T16:12:23.074Z,56.10
2023-04-04T16:14:50.877Z,56.10
2023-04-04T16:17:18.564Z,56.20
2023-04-04T16:19:47.656Z,56.30
2023-04-04T16:22:15.434Z,56.30
2023-04-04T16:24:43.148Z,56.20
2023-04-04T16:27:11.829Z,56.00
2023-04-04T16:29:39.613Z,56.00
2023-04-04T16:32:08.083Z,56.00
2023-04-04T16:34:38.820Z,56.00
2023-04-04T16:37:09.610Z,56.10
2023-04-04T16:39:37.298Z,56.10
2023-04-04T16:42:05.175Z,56.80
2023-04-04T16:44:32.891Z,56.20
2023-04-04T16:47:00.771Z,56.30
2023-04-04T16:49:28.946Z,56.30
2023-04-04T16:51:56.648Z,56.40
2023-04-04T16:54:25.697Z,56.40
2023-04-04T16:56:53.393Z,56.50
2023-04-04T16:59:21.160Z,56.60
2023-04-04T17:01:49.090Z,56.50
2023-04-04T17:04:17.000Z,56.60
2023-04-04T17:06:45.736Z,56.60
2023-04-04T17:09:13.442Z,56.70
2023-04-04T17:11:44.640Z,56.70
2023-04-04T17:14:12.717Z,56.80
2023-04-04T17:16:40.572Z,56.80
2023-04-04T17:19:08.315Z,56.90
2023-04-04T17:21:36.477Z,56.90
2023-04-04T17:24:04.313Z,56.90
2023-04-04T17:26:32.008Z,57.00
2023-04-04T17:29:01.501Z,57.00
2023-04-04T17:31:29.477Z,57.10
2023-04-04T17:33:57.203Z,57.00
2023-04-04T17:36:24.954Z,57.10
2023-04-04T17:38:52.692Z,57.10
2023-04-04T17:41:20.478Z,57.10
2023-04-04T17:43:48.191Z,57.10
2023-04-04T17:46:17.767Z,57.00
2023-04-04T17:48:45.492Z,56.80
2023-04-04T17:51:13.766Z,56.50
2023-04-04T17:53:41.548Z,56.20
2023-04-04T17:56:09.244Z,56.00
2023-04-04T17:58:37.130Z,56.50
2023-04-04T18:01:05.152Z,55.70
2023-04-04T18:03:34.261Z,55.60
2023-04-04T18:06:02.383Z,55.60
2023-04-04T18:08:30.266Z,55.60
2023-04-04T18:10:58.720Z,55.60
2023-04-04T18:13:26.415Z,55.60
2023-04-04T18:15:54.142Z,55.60
2023-04-04T18:18:22.137Z,55.70
2023-04-04T18:20:51.239Z,55.70
2023-04-04T18:23:19.264Z,55.70
2023-04-04T18:25:47.235Z,55.70
2023-04-04T18:28:14.919Z,55.70
2023-04-04T18:30:42.846Z,55.80
2023-04-04T18:33:11.658Z,55.80
2023-04-04T18:35:39.409Z,55.90
2023-04-04T18:38:08.448Z,55.90
2023-04-04T18:40:36.167Z,56.00
2023-04-04T18:43:04.182Z,56.00
2023-04-04T18:45:39.233Z,56.00
2023-04-04T18:48:08.316Z,56.10
2023-04-04T18:50:36.613Z,56.10
2023-04-04T18:53:04.389Z,56.80
2023-04-04T18:55:33.434Z,56.20
2023-04-04T18:58:01.206Z,56.30
2023-04-04T19:00:28.973Z,56.30
2023-04-04T19:02:57.014Z,56.40
2023-04-04T19:05:25.562Z,56.40
2023-04-04T19:07:54.739Z,56.40
2023-04-04T19:10:23.055Z,57.20
2023-04-04T19:12:52.090Z,56.50
2023-04-04T19:15:19.887Z,56.60
2023-04-04T19:17:47.874Z,56.60
2023-04-04T19:20:15.714Z,56.70
2023-04-04T19:22:43.488Z,56.70
2023-04-04T19:25:11.432Z,56.70
2023-04-04T19:27:39.259Z,56.80
2023-04-04T19:30:33.845Z,56.80
2023-04-04T19:33:02.637Z,56.90
2023-04-04T19:35:49.239Z,56.80
2023-04-04T19:38:24.534Z,56.90
2023-04-04T19:40:53.724Z,56.90
2023-04-04T19:43:23.096Z,56.90
2023-04-04T19:45:53.995Z,57.00
2023-04-04T19:48:42.356Z,57.00
2023-04-04T19:51:13.114Z,57.10
2023-04-04T19:53:40.846Z,57.10
2023-04-04T19:56:10.256Z,57.10
2023-04-04T19:58:38.769Z,57.10
2023-04-04T20:01:09.513Z,57.10
2023-04-04T20:03:38.851Z,57.20
2023-04-04T20:06:10.102Z,57.80
2023-04-04T20:08:44.126Z,57.20
2023-04-04T20:11:13.093Z,57.20
2023-04-04T20:13:42.190Z,57.20
2023-04-04T20:16:13.662Z,57.30
2023-04-04T20:18:43.798Z,57.30
2023-04-04T20:21:13.672Z,57.30
2023-04-04T20:23:44.186Z,57.20
2023-04-04T20:26:14.343Z,57.30
2023-04-04T20:28:45.509Z,57.30
2023-04-04T20:31:19.485Z,57.40
2023-04-04T20:33:47.244Z,57.40
2023-04-04T20:36:33.224Z,57.40
2023-04-04T20:39:01.310Z,57.50
2023-04-04T20:41:29.139Z,57.50
2023-04-04T20:43:58.662Z,57.50
2023-04-04T20:46:29.084Z,57.60
2023-04-04T20:48:57.296Z,57.50
2023-04-04T20:51:30.786Z,57.70
2023-04-04T20:53:59.773Z,57.60
2023-04-04T20:56:52.333Z,57.70
2023-04-04T20:59:38.406Z,57.80
2023-04-04T21:02:16.702Z,57.70
2023-04-04T21:04:48.056Z,57.80
2023-04-04T21:07:38.585Z,57.80
2023-04-04T21:10:23.425Z,57.80
2023-04-04T21:12:51.283Z,57.90
2023-04-04T21:15:26.222Z,57.90
2023-04-04T21:17:55.862Z,57.90
2023-04-04T21:21:10.740Z,58.00
2023-04-04T21:23:46.033Z,58.00
2023-04-04T21:26:22.514Z,58.00
2023-04-04T21:28:51.356Z,58.10
2023-04-04T21:31:22.123Z,58.10
2023-04-04T21:33:53.215Z,58.20
2023-04-04T21:36:31.174Z,58.10
2023-04-04T21:39:00.543Z,58.20
2023-04-04T21:41:29.689Z,58.20
2023-04-04T21:43:58.832Z,58.20
2023-04-04T21:46:28.249Z,58.30
2023-04-04T21:48:57.623Z,58.30
2023-04-04T21:51:25.994Z,58.30
2023-04-04T21:53:53.760Z,58.30
2023-04-04T21:56:26.864Z,58.30
2023-04-04T21:58:55.459Z,58.30
2023-04-04T22:01:23.322Z,58.40
2023-04-04T22:03:51.090Z,58.40
2023-04-04T22:06:22.129Z,58.40
2023-04-04T22:08:49.887Z,58.40
2023-04-04T22:11:19.108Z,58.50
2023-04-04T22:13:48.076Z,58.50
2023-04-04T22:16:16.978Z,58.50
2023-04-04T22:18:46.894Z,58.50
2023-04-04T22:21:15.526Z,58.50
2023-04-04T22:23:44.623Z,58.60
2023-04-04T22:26:14.934Z,58.60
2023-04-04T22:28:45.655Z,58.60
2023-04-04T22:31:14.074Z,58.60
2023-04-04T22:33:41.826Z,58.60
2023-04-04T22:36:10.247Z,58.60
2023-04-04T22:38:39.186Z,58.60
2023-04-04T22:41:08.313Z,58.70
2023-04-04T22:43:36.032Z,58.70
2023-04-04T22:46:03.777Z,58.70
2023-04-04T22:48:31.637Z,58.70
2023-04-04T22:51:02.660Z,58.80
2023-04-04T22:53:30.380Z,58.80
2023-04-04T22:56:00.502Z,58.80
2023-04-04T22:58:29.516Z,58.80
2023-04-04T23:00:57.204Z,58.80
2023-04-04T23:03:24.882Z,58.80
2023-04-04T23:05:52.554Z,58.80
2023-04-04T23:08:20.497Z,58.90
2023-04-04T23:10:48.225Z,58.90
2023-04-04T23:13:16.129Z,59.00
2023-04-04T23:15:45.790Z,58.90
2023-04-04T23:18:13.673Z,58.90
2023-04-04T23:20:42.258Z,58.90
2023-04-04T23:23:10.290Z,59.00
2023-04-04T23:25:37.971Z,59.00
2023-04-04T23:28:05.919Z,59.00
2023-04-04T23:30:33.693Z,59.00
2023-04-04T23:33:02.753Z,59.00
2023-04-04T23:35:30.557Z,59.00
2023-04-04T23:37:58.278Z,59.00
2023-04-04T23:40:25.981Z,59.00
2023-04-04T23:42:54.021Z,59.10
2023-04-04T23:45:22.226Z,59.10
2023-04-04T23:47:49.956Z,59.10
2023-04-04T23:50:19.290Z,59.10
2023-04-04T23:52:46.967Z,59.10
2023-04-04T23:55:16.870Z,59.10
2023-04-04T23:57:44.861Z,59.10
